createdAt,value
2023-04-18T00:00:29.664Z,97123.25
2023-04-18T00:03:15.192Z,97122.72
2023-04-18T00:06:00.299Z,97133.06
2023-04-18T00:08:45.762Z,97129.00
2023-04-18T00:11:31.238Z,97123.28
2023-04-18T00:14:16.689Z,97115.66
2023-04-18T00:17:02.253Z,97117.56
2023-04-18T00:19:47.638Z,97114.56
2023-04-18T00:22:33.003Z,97118.13
2023-04-18T00:25:18.327Z,97115.13
2023-04-18T00:28:03.937Z,97115.66
2023-04-18T00:30:49.292Z,97111.88
2023-04-18T00:33:34.768Z,97111.88
2023-04-18T00:36:20.064Z,97110.50
2023-04-18T00:39:05.627Z,97102.63
2023-04-18T00:41:51.030Z,97104.25
2023-04-18T00:44:36.463Z,97101.25
2023-04-18T00:47:22.129Z,97104.56
2023-04-18T00:50:10.514Z,97102.63
2023-04-18T00:52:55.968Z,97102.91
2023-04-18T00:55:41.335Z,97099.91
2023-04-18T00:58:26.506Z,97104.25
2023-04-18T01:01:11.617Z,97101.00
2023-04-18T01:03:56.927Z,97096.38
2023-04-18T01:06:42.300Z,97101.25
2023-04-18T01:09:27.639Z,97098.53
2023-04-18T01:12:13.236Z,97099.66
2023-04-18T01:14:58.638Z,97096.38
2023-04-18T01:17:43.951Z,97100.19
2023-04-18T01:20:29.300Z,97103.16
2023-04-18T01:23:15.003Z,97101.25
2023-04-18T01:26:02.996Z,97107.25
2023-04-18T01:28:48.113Z,97102.91
2023-04-18T01:31:36.450Z,97108.34
2023-04-18T01:34:21.390Z,97103.16
2023-04-18T01:37:06.486Z,97101.56
2023-04-18T01:39:51.758Z,97100.19
2023-04-18T01:42:40.236Z,97094.22
2023-04-18T01:45:25.720Z,97092.31
2023-04-18T01:48:12.130Z,97095.31
2023-04-18T01:50:57.445Z,97094.75
2023-04-18T01:53:42.823Z,97092.03
2023-04-18T01:56:28.189Z,97090.94
2023-04-18T01:59:13.551Z,97095.81
2023-04-18T02:01:59.067Z,97085.78
2023-04-18T02:04:44.192Z,97097.19
2023-04-18T02:07:29.478Z,97101.53
2023-04-18T02:10:14.889Z,97106.97
2023-04-18T02:13:00.355Z,97101.53
2023-04-18T02:15:45.770Z,97110.22
2023-04-18T02:18:31.329Z,97110.25
2023-04-18T02:21:16.400Z,97115.41
2023-04-18T02:24:02.835Z,97109.69
2023-04-18T02:26:48.345Z,97126.53
2023-04-18T02:29:33.632Z,97116.22
2023-04-18T02:32:19.155Z,97124.66
2023-04-18T02:35:04.538Z,97118.94
2023-04-18T02:37:49.944Z,97124.38
2023-04-18T02:40:35.401Z,97112.94
2023-04-18T02:43:20.618Z,97115.66
2023-04-18T02:46:05.718Z,97116.22
2023-04-18T02:48:50.956Z,97113.22
2023-04-18T02:51:36.246Z,97121.09
2023-04-18T02:54:21.678Z,97117.03
2023-04-18T02:57:08.261Z,97121.69
2023-04-18T02:59:53.573Z,97121.13
2023-04-18T03:02:38.879Z,97124.38
2023-04-18T03:05:23.993Z,97115.66
2023-04-18T03:08:09.424Z,97121.94
2023-04-18T03:10:56.255Z,97116.50
2023-04-18T03:13:41.618Z,97118.13
2023-04-18T03:16:27.016Z,97116.75
2023-04-18T03:19:13.463Z,97115.66
2023-04-18T03:21:58.716Z,97105.59
2023-04-18T03:24:44.183Z,97119.75
2023-04-18T03:27:29.773Z,97109.97
2023-04-18T03:30:17.881Z,97116.22
2023-04-18T03:33:03.405Z,97114.31
2023-04-18T03:35:48.935Z,97109.97
2023-04-18T03:38:34.168Z,97111.63
2023-04-18T03:41:19.766Z,97113.75
2023-04-18T03:44:05.064Z,97108.34
2023-04-18T03:46:50.605Z,97113.75
2023-04-18T03:49:36.137Z,97111.03
2023-04-18T03:52:21.588Z,97114.31
2023-04-18T03:55:06.657Z,97112.13
2023-04-18T03:57:52.029Z,97111.56
2023-04-18T04:00:37.307Z,97108.34
2023-04-18T04:03:22.785Z,97115.41
2023-04-18T04:06:08.128Z,97107.50
2023-04-18T04:08:53.737Z,97113.19
2023-04-18T04:11:39.017Z,97114.84
2023-04-18T04:14:23.991Z,97117.34
2023-04-18T04:17:09.389Z,97112.16
2023-04-18T04:19:54.777Z,97118.16
2023-04-18T04:22:40.055Z,97120.56
2023-04-18T04:25:25.303Z,97118.97
2023-04-18T04:28:10.691Z,97124.63
2023-04-18T04:30:56.057Z,97125.19
2023-04-18T04:33:41.452Z,97123.56
2023-04-18T04:36:26.923Z,97130.91
2023-04-18T04:39:12.199Z,97126.28
2023-04-18T04:41:57.386Z,97123.00
2023-04-18T04:44:42.732Z,97123.28
2023-04-18T04:47:28.052Z,97137.69
2023-04-18T04:50:13.274Z,97135.25
2023-04-18T04:52:58.708Z,97130.06
2023-04-18T04:55:44.133Z,97136.06
2023-04-18T04:58:29.457Z,97130.34
2023-04-18T05:01:14.888Z,97133.06
2023-04-18T05:04:02.576Z,97143.13
2023-04-18T05:06:48.098Z,97140.41
2023-04-18T05:09:33.552Z,97142.03
2023-04-18T05:12:18.954Z,97133.34
2023-04-18T05:15:04.442Z,97142.03
2023-04-18T05:17:49.926Z,97140.13
2023-04-18T05:20:35.375Z,97137.69
2023-04-18T05:23:20.951Z,97137.69
2023-04-18T05:26:06.138Z,97131.97
2023-04-18T05:28:51.346Z,97135.25
2023-04-18T05:31:36.597Z,97139.88
2023-04-18T05:34:21.925Z,97142.03
2023-04-18T05:37:07.316Z,97145.84
2023-04-18T05:39:52.492Z,97146.94
2023-04-18T05:42:37.852Z,97149.09
2023-04-18T05:45:23.264Z,97148.56
2023-04-18T05:48:08.791Z,97153.97
2023-04-18T05:50:54.009Z,97152.06
2023-04-18T05:53:39.578Z,97155.09
2023-04-18T05:56:24.924Z,97158.09
2023-04-18T05:59:10.348Z,97154.81
2023-04-18T06:01:58.738Z,97149.63
2023-04-18T06:04:44.240Z,97155.88
2023-04-18T06:07:29.834Z,97162.69
2023-04-18T06:10:15.247Z,97165.41
2023-04-18T06:13:00.492Z,97161.63
2023-04-18T06:15:45.964Z,97173.28
2023-04-18T06:18:31.095Z,97176.53
2023-04-18T06:21:16.406Z,97173.56
2023-04-18T06:24:01.803Z,97176.81
2023-04-18T06:26:47.082Z,97181.16
2023-04-18T06:29:32.186Z,97172.47
2023-04-18T06:32:17.401Z,97182.25
2023-04-18T06:35:03.036Z,97182.78
2023-04-18T06:37:48.476Z,97177.09
2023-04-18T06:40:33.866Z,97177.34
2023-04-18T06:43:21.641Z,97175.44
2023-04-18T06:46:06.779Z,97184.97
2023-04-18T06:48:52.073Z,97179.81
2023-04-18T06:51:37.619Z,97183.06
2023-04-18T06:54:22.900Z,97177.09
2023-04-18T06:57:08.070Z,97184.16
2023-04-18T06:59:53.106Z,97186.88
2023-04-18T07:02:38.632Z,97184.16
2023-04-18T07:05:23.758Z,97174.38
2023-04-18T07:08:09.187Z,97175.44
2023-04-18T07:10:54.465Z,97177.03
2023-04-18T07:13:39.690Z,97169.47
2023-04-18T07:16:25.174Z,97178.94
2023-04-18T07:19:10.340Z,97178.69
2023-04-18T07:21:55.747Z,97178.94
2023-04-18T07:24:41.109Z,97174.66
2023-04-18T07:27:26.433Z,97173.56
2023-04-18T07:30:11.863Z,97175.72
2023-04-18T07:32:57.161Z,97168.97
2023-04-18T07:35:42.562Z,97170.28
2023-04-18T07:38:27.732Z,97161.06
2023-04-18T07:41:12.903Z,97165.69
2023-04-18T07:44:01.363Z,97162.41
2023-04-18T07:46:46.588Z,97158.59
2023-04-18T07:49:32.135Z,97160.22
2023-04-18T07:52:17.701Z,97161.63
2023-04-18T07:55:03.103Z,97161.03
2023-04-18T07:57:50.691Z,97162.69
2023-04-18T08:00:38.475Z,97164.56
2023-04-18T08:03:24.554Z,97165.13
2023-04-18T08:06:12.109Z,97153.97
2023-04-18T08:08:57.323Z,97154.78
2023-04-18T08:11:42.476Z,97149.09
2023-04-18T08:14:27.777Z,97148.81
2023-04-18T08:17:13.168Z,97148.50
2023-04-18T08:19:58.720Z,97143.38
2023-04-18T08:22:57.735Z,97157.00
2023-04-18T08:25:49.052Z,97144.22
2023-04-18T08:28:34.536Z,97144.50
2023-04-18T08:31:19.767Z,97142.53
2023-04-18T08:34:05.360Z,97140.88
2023-04-18T08:36:50.696Z,97141.94
2023-04-18T08:39:36.807Z,97153.16
2023-04-18T08:42:25.351Z,97148.03
2023-04-18T08:45:10.705Z,97149.91
2023-04-18T08:47:56.121Z,97142.03
2023-04-18T08:50:41.442Z,97142.00
2023-04-18T08:53:27.882Z,97148.00
2023-04-18T08:56:13.134Z,97148.00
2023-04-18T08:58:58.545Z,97147.19
2023-04-18T09:01:43.836Z,97152.34
2023-04-18T09:04:29.284Z,97145.28
2023-04-18T09:07:14.464Z,97146.38
2023-04-18T09:10:00.002Z,97144.16
2023-04-18T09:12:44.984Z,97152.06
2023-04-18T09:15:30.135Z,97140.13
2023-04-18T09:18:15.286Z,97142.00
2023-04-18T09:21:00.446Z,97148.25
2023-04-18T09:23:45.721Z,97138.75
2023-04-18T09:26:31.092Z,97143.66
2023-04-18T09:29:16.502Z,97146.38
2023-04-18T09:32:02.012Z,97141.47
2023-04-18T09:34:47.382Z,97144.22
2023-04-18T09:37:32.661Z,97153.19
2023-04-18T09:40:18.056Z,97146.66
2023-04-18T09:43:03.364Z,97139.56
2023-04-18T09:45:48.704Z,97137.16
2023-04-18T09:48:34.064Z,97146.38
2023-04-18T09:51:19.428Z,97151.53
2023-04-18T09:54:04.870Z,97146.13
2023-04-18T09:56:50.411Z,97151.81
2023-04-18T09:59:35.689Z,97150.69
2023-04-18T10:02:21.383Z,97141.22
2023-04-18T10:05:06.796Z,97148.53
2023-04-18T10:07:52.013Z,97144.47
2023-04-18T10:10:38.950Z,97140.38
2023-04-18T10:13:24.159Z,97139.31
2023-04-18T10:16:09.373Z,97139.56
2023-04-18T10:18:54.865Z,97137.69
2023-04-18T10:21:43.157Z,97129.78
2023-04-18T10:24:28.697Z,97132.22
2023-04-18T10:27:14.333Z,97138.75
2023-04-18T10:29:59.568Z,97137.38
2023-04-18T10:32:45.027Z,97140.66
2023-04-18T10:35:30.202Z,97126.81
2023-04-18T10:38:15.567Z,97122.19
2023-04-18T10:41:01.162Z,97121.63
2023-04-18T10:43:46.106Z,97127.91
2023-04-18T10:46:32.802Z,97123.28
2023-04-18T10:49:18.470Z,97118.94
2023-04-18T10:52:03.851Z,97115.66
2023-04-18T10:54:49.185Z,97119.22
2023-04-18T10:57:34.631Z,97109.16
2023-04-18T11:00:20.223Z,97105.84
2023-04-18T11:03:05.779Z,97112.66
2023-04-18T11:05:51.408Z,97103.72
2023-04-18T11:08:37.233Z,97103.72
2023-04-18T11:11:22.784Z,97101.81
2023-04-18T11:14:08.659Z,97092.28
2023-04-18T11:16:53.964Z,97085.72
2023-04-18T11:19:39.409Z,97078.94
2023-04-18T11:22:24.728Z,97072.97
2023-04-18T11:25:10.380Z,97081.41
2023-04-18T11:27:55.705Z,97078.97
2023-04-18T11:30:41.042Z,97078.16
2023-04-18T11:33:26.456Z,97075.97
2023-04-18T11:36:11.847Z,97079.50
2023-04-18T11:38:57.164Z,97077.31
2023-04-18T11:41:42.690Z,97080.59
2023-04-18T11:44:28.067Z,97067.81
2023-04-18T11:47:13.386Z,97071.63
2023-04-18T11:49:58.816Z,97064.78
2023-04-18T11:52:44.137Z,97061.00
2023-04-18T11:55:29.376Z,97056.06
2023-04-18T11:58:14.708Z,97057.47
2023-04-18T12:00:59.990Z,97057.94
2023-04-18T12:03:45.300Z,97062.59
2023-04-18T12:06:30.766Z,97063.19
2023-04-18T12:09:16.012Z,97067.50
2023-04-18T12:12:01.488Z,97067.50
2023-04-18T12:14:46.916Z,97072.66
2023-04-18T12:17:32.134Z,97066.13
2023-04-18T12:20:17.501Z,97063.69
2023-04-18T12:23:02.865Z,97053.66
2023-04-18T12:25:48.365Z,97049.81
2023-04-18T12:28:33.609Z,97053.91
2023-04-18T12:31:19.100Z,97050.09
2023-04-18T12:34:04.491Z,97054.69
2023-04-18T12:36:49.790Z,97050.59
2023-04-18T12:39:34.872Z,97056.31
2023-04-18T12:42:19.804Z,97051.38
2023-04-18T12:45:05.279Z,97056.56
2023-04-18T12:47:50.646Z,97050.00
2023-04-18T12:50:35.991Z,97051.66
2023-04-18T12:53:21.573Z,97053.00
2023-04-18T12:56:06.717Z,97055.63
2023-04-18T12:58:52.234Z,97049.66
2023-04-18T13:01:37.466Z,97048.22
2023-04-18T13:04:23.121Z,97041.63
2023-04-18T13:07:08.146Z,97042.31
2023-04-18T13:09:53.506Z,97044.72
2023-04-18T13:12:41.769Z,97050.09
2023-04-18T13:15:27.498Z,97047.41
2023-04-18T13:18:12.828Z,97046.78
2023-04-18T13:20:58.332Z,97047.78
2023-04-18T13:23:43.632Z,97043.09
2023-04-18T13:26:29.052Z,97038.50
2023-04-18T13:29:14.543Z,97045.94
2023-04-18T13:31:59.703Z,97053.28
2023-04-18T13:34:45.034Z,97040.06
2023-04-18T13:37:30.324Z,97045.03
2023-04-18T13:40:15.796Z,97038.13
2023-04-18T13:43:00.826Z,97036.03
2023-04-18T13:45:46.394Z,97029.88
2023-04-18T13:48:31.696Z,97025.75
2023-04-18T13:51:17.040Z,97023.88
2023-04-18T13:54:02.579Z,97034.53
2023-04-18T13:56:47.910Z,97023.59
2023-04-18T13:59:33.359Z,97023.03
2023-04-18T14:02:18.759Z,97018.50
2023-04-18T14:05:04.236Z,97012.41
2023-04-18T14:07:49.475Z,97020.59
2023-04-18T14:10:34.727Z,97016.75
2023-04-18T14:13:20.118Z,97022.06
2023-04-18T14:16:05.384Z,97017.50
2023-04-18T14:18:50.757Z,97013.25
2023-04-18T14:21:36.122Z,97017.59
2023-04-18T14:24:21.479Z,97024.16
2023-04-18T14:27:06.858Z,97021.19
2023-04-18T14:29:52.248Z,97009.44
2023-04-18T14:32:37.719Z,97008.78
2023-04-18T14:35:23.061Z,97027.56
2023-04-18T14:38:08.428Z,97012.38
2023-04-18T14:40:53.585Z,97024.41
2023-04-18T14:43:38.942Z,97016.97
2023-04-18T14:46:24.319Z,97025.56
2023-04-18T14:49:09.464Z,97021.72
2023-04-18T14:51:54.790Z,97015.13
2023-04-18T14:54:40.254Z,97011.47
2023-04-18T14:57:26.601Z,97022.34
2023-04-18T15:00:11.620Z,97016.34
2023-04-18T15:02:56.893Z,97024.34
2023-04-18T15:05:42.321Z,97018.97
2023-04-18T15:08:27.760Z,97006.81
2023-04-18T15:11:13.330Z,97013.88
2023-04-18T15:13:58.907Z,97013.22
2023-04-18T15:16:44.264Z,97013.38
2023-04-18T15:19:29.634Z,97008.94
2023-04-18T15:22:14.995Z,97012.94
2023-04-18T15:25:00.215Z,97009.81
2023-04-18T15:27:45.596Z,97013.22
2023-04-18T15:30:30.846Z,97014.34
2023-04-18T15:33:16.139Z,97014.84
2023-04-18T15:36:01.438Z,97008.31
2023-04-18T15:38:46.583Z,97022.59
2023-04-18T15:41:34.881Z,97010.78
2023-04-18T15:44:21.210Z,97020.50
2023-04-18T15:47:06.656Z,97019.59
2023-04-18T15:49:52.336Z,97025.78
2023-04-18T15:52:37.564Z,97021.13
2023-04-18T15:55:22.774Z,97020.84
2023-04-18T15:58:08.053Z,97028.50
2023-04-18T16:00:53.441Z,97024.56
2023-04-18T16:03:38.797Z,97015.66
2023-04-18T16:06:23.923Z,97021.84
2023-04-18T16:09:11.747Z,97023.13
2023-04-18T16:11:56.760Z,97015.94
2023-04-18T16:14:41.895Z,97024.47
2023-04-18T16:17:27.208Z,97021.88
2023-04-18T16:20:12.431Z,97021.75
2023-04-18T16:22:57.982Z,97030.97
2023-04-18T16:25:43.380Z,97025.50
2023-04-18T16:28:28.853Z,97038.72
2023-04-18T16:31:13.911Z,97020.50
2023-04-18T16:33:59.326Z,97008.63
2023-04-18T16:36:44.550Z,97016.28
2023-04-18T16:39:29.680Z,97012.72
2023-04-18T16:42:15.886Z,97014.41
2023-04-18T16:45:02.120Z,97020.00
2023-04-18T16:47:47.693Z,97042.72
2023-04-18T16:50:33.210Z,97044.09
2023-04-18T16:53:18.421Z,97044.16
2023-04-18T16:56:03.749Z,97044.00
2023-04-18T16:58:49.058Z,97050.78
2023-04-18T17:01:34.700Z,97045.63
2023-04-18T17:04:20.156Z,97052.66
2023-04-18T17:07:05.457Z,97047.44
2023-04-18T17:09:50.765Z,97051.84
2023-04-18T17:12:36.106Z,97044.44
2023-04-18T17:15:21.425Z,97045.56
2023-04-18T17:18:06.859Z,97049.66
2023-04-18T17:20:52.347Z,97052.34
2023-04-18T17:23:37.988Z,97053.25
2023-04-18T17:26:26.113Z,97052.25
2023-04-18T17:29:11.387Z,97056.38
2023-04-18T17:31:56.802Z,97059.56
2023-04-18T17:34:42.150Z,97068.03
2023-04-18T17:37:27.560Z,97063.63
2023-04-18T17:40:12.601Z,97061.25
2023-04-18T17:42:57.997Z,97071.69
2023-04-18T17:45:43.493Z,97071.78
2023-04-18T17:48:28.731Z,97073.09
2023-04-18T17:51:14.313Z,97084.00
2023-04-18T17:53:59.590Z,97082.25
2023-04-18T17:56:45.042Z,97084.69
2023-04-18T17:59:30.433Z,97085.28
2023-04-18T18:02:15.834Z,97085.38
2023-04-18T18:05:01.218Z,97095.22
2023-04-18T18:07:46.499Z,97101.22
2023-04-18T18:10:32.006Z,97099.09
2023-04-18T18:13:17.472Z,97103.19
2023-04-18T18:16:02.771Z,97104.31
2023-04-18T18:18:48.050Z,97107.75
2023-04-18T18:21:33.505Z,97103.94
2023-04-18T18:24:18.904Z,97104.81
2023-04-18T18:27:04.005Z,97110.22
2023-04-18T18:29:49.515Z,97109.56
2023-04-18T18:32:38.153Z,97067.97
2023-04-18T18:35:23.461Z,97071.66
2023-04-18T18:38:08.298Z,97109.53
2023-04-18T18:40:54.416Z,97123.41
2023-04-18T18:43:40.116Z,97125.84
2023-04-18T18:46:25.495Z,97124.50
2023-04-18T18:49:10.737Z,97130.22
2023-04-18T18:51:56.295Z,97130.75
2023-04-18T18:54:41.610Z,97133.72
2023-04-18T18:57:27.060Z,97134.81
2023-04-18T19:00:12.436Z,97145.91
2023-04-18T19:02:57.984Z,97143.16
2023-04-18T19:05:43.371Z,97153.72
2023-04-18T19:08:28.718Z,97151.50
2023-04-18T19:11:17.084Z,97148.81
2023-04-18T19:14:02.376Z,97153.72
2023-04-18T19:16:47.801Z,97164.91
2023-04-18T19:19:33.386Z,97160.56
2023-04-18T19:22:18.386Z,97159.75
2023-04-18T19:25:03.757Z,97161.38
2023-04-18T19:27:49.516Z,97159.94
2023-04-18T19:30:34.802Z,97156.72
2023-04-18T19:33:20.306Z,97166.00
2023-04-18T19:36:05.550Z,97168.47
2023-04-18T19:38:51.119Z,97158.84
2023-04-18T19:41:36.632Z,97166.47
2023-04-18T19:44:21.707Z,97164.31
2023-04-18T19:47:07.083Z,97173.63
2023-04-18T19:49:52.375Z,97172.56
2023-04-18T19:52:37.560Z,97164.72
2023-04-18T19:55:22.787Z,97169.63
2023-04-18T19:58:08.086Z,97173.88
2023-04-18T20:00:53.236Z,97169.25
2023-04-18T20:03:38.869Z,97162.72
2023-04-18T20:06:24.829Z,97175.31
2023-04-18T20:09:10.058Z,97172.84
2023-04-18T20:11:55.438Z,97167.59
2023-04-18T20:14:40.932Z,97173.38
2023-04-18T20:17:26.474Z,97182.06
2023-04-18T20:20:11.757Z,97180.69
2023-04-18T20:22:57.200Z,97180.13
2023-04-18T20:25:42.780Z,97185.00
2023-04-18T20:28:28.155Z,97175.22
2023-04-18T20:31:13.534Z,97175.81
2023-04-18T20:33:58.863Z,97178.88
2023-04-18T20:36:44.403Z,97188.09
2023-04-18T20:39:29.699Z,97179.06
2023-04-18T20:42:14.957Z,97190.31
2023-04-18T20:45:00.387Z,97190.00
2023-04-18T20:47:45.887Z,97184.59
2023-04-18T20:50:31.280Z,97186.19
2023-04-18T20:53:16.650Z,97185.09
2023-04-18T20:56:01.759Z,97188.28
2023-04-18T20:58:46.992Z,97183.69
2023-04-18T21:01:32.436Z,97195.47
2023-04-18T21:04:18.043Z,97204.19
2023-04-18T21:07:03.238Z,97191.03
2023-04-18T21:09:48.563Z,97194.03
2023-04-18T21:12:33.990Z,97205.28
2023-04-18T21:15:19.363Z,97201.97
2023-04-18T21:18:04.745Z,97201.13
2023-04-18T21:20:50.156Z,97214.47
2023-04-18T21:23:37.333Z,97221.84
2023-04-18T21:26:22.572Z,97226.47
2023-04-18T21:29:07.788Z,97240.63
2023-04-18T21:31:53.231Z,97238.72
2023-04-18T21:34:38.723Z,97246.03
2023-04-18T21:37:24.096Z,97245.75
2023-04-18T21:40:09.348Z,97258.00
2023-04-18T21:42:54.739Z,97256.13
2023-04-18T21:45:40.163Z,97259.06
2023-04-18T21:48:25.537Z,97259.66
2023-04-18T21:51:10.822Z,97267.75
2023-04-18T21:53:56.219Z,97268.88
2023-04-18T21:56:41.541Z,97268.09
2023-04-18T21:59:27.008Z,97267.81
2023-04-18T22:02:12.326Z,97267.56
2023-04-18T22:04:57.816Z,97275.13
2023-04-18T22:07:50.500Z,97280.63
2023-04-18T22:10:40.343Z,97278.69
2023-04-18T22:13:25.724Z,97277.59
2023-04-18T22:16:11.180Z,97278.66
2023-04-18T22:18:56.709Z,97277.88
2023-04-18T22:21:42.028Z,97283.06
2023-04-18T22:24:27.255Z,97282.75
2023-04-18T22:27:12.664Z,97281.94
2023-04-18T22:29:57.711Z,97291.50
2023-04-18T22:32:43.188Z,97284.97
2023-04-18T22:35:28.678Z,97283.03
2023-04-18T22:38:13.950Z,97287.41
2023-04-18T22:40:59.154Z,97283.56
2023-04-18T22:43:44.294Z,97301.56
2023-04-18T22:46:29.522Z,97298.81
2023-04-18T22:49:14.676Z,97300.16
2023-04-18T22:52:00.160Z,97306.19
2023-04-18T22:54:45.546Z,97307.84
2023-04-18T22:57:31.031Z,97308.63
2023-04-18T23:00:16.213Z,97310.81
2023-04-18T23:03:01.571Z,97318.16
2023-04-18T23:05:46.917Z,97317.63
2023-04-18T23:08:32.083Z,97315.19
2023-04-18T23:11:17.421Z,97317.91
2023-04-18T23:14:02.759Z,97318.97
2023-04-18T23:16:48.048Z,97323.88
2023-04-18T23:19:33.541Z,97327.97
2023-04-18T23:22:18.747Z,97330.41
2023-04-18T23:25:04.071Z,97323.59
2023-04-18T23:27:48.942Z,97326.59
2023-04-18T23:30:34.516Z,97327.13
2023-04-18T23:33:19.615Z,97327.44
2023-04-18T23:36:05.196Z,97332.56
2023-04-18T23:38:50.361Z,97332.84
2023-04-18T23:41:35.354Z,97336.13
2023-04-18T23:44:20.820Z,97329.31
2023-04-18T23:47:06.279Z,97335.31
2023-04-18T23:49:51.424Z,97334.25
2023-04-18T23:52:36.699Z,97334.25
2023-04-18T23:55:21.836Z,97323.34
2023-04-18T23:58:07.384Z,97330.69
